Time;durP1;ratioP1;P1;durP2;ratioP2;P2;SDS_P1;SDS_P2;PMS_P1;PMS_P2;Temp;Humidity;BMP_temperature;BMP_pressure;BME280_temperature;BME280_humidity;BME280_pressure;Samples;Min_cycle;Max_cycle;Signal;HPM_P1;HPM_P2
2023/02/17 00:01:08;;;;;;;177.23;68.18;;;8.70;99.90;;;;;;5061537;28;20060;-73
2023/02/17 00:03:33;;;;;;;162.60;61.30;;;8.70;99.90;;;;;;5063400;28;20037;-73
2023/02/17 00:06:03;;;;;;;209.45;71.85;;;8.70;99.90;;;;;;5062686;28;20039;-74
2023/02/17 00:08:29;;;;;;;173.05;64.97;;;8.70;99.90;;;;;;5063294;28;20025;-75
2023/02/17 00:10:56;;;;;;;169.30;65.07;;;8.80;99.90;;;;;;5063913;28;21177;-73
2023/02/17 00:13:22;;;;;;;150.88;59.95;;;8.80;99.90;;;;;;5064194;28;20359;-71
2023/02/17 00:15:48;;;;;;;180.15;64.18;;;8.80;99.90;;;;;;5062383;28;20035;-72
2023/02/17 00:18:13;;;;;;;160.13;63.10;;;8.80;99.90;;;;;;5061858;28;20029;-72
2023/02/17 00:20:39;;;;;;;150.05;58.33;;;8.80;99.90;;;;;;5061911;28;20040;-73
2023/02/17 00:23:04;;;;;;;160.13;60.55;;;8.80;99.90;;;;;;5063496;28;20052;-72
2023/02/17 00:25:30;;;;;;;147.07;56.33;;;8.80;99.90;;;;;;5062329;28;20033;-72
2023/02/17 00:27:55;;;;;;;145.50;56.50;;;8.90;99.90;;;;;;5063375;28;20394;-71
2023/02/17 00:30:21;;;;;;;129.48;52.72;;;8.90;99.90;;;;;;5061790;28;20037;-75
2023/02/17 00:32:46;;;;;;;136.13;54.53;;;8.90;99.90;;;;;;5063486;28;20028;-74
2023/02/17 00:35:12;;;;;;;138.20;55.20;;;8.90;99.90;;;;;;5062989;28;20021;-73
2023/02/17 00:37:39;;;;;;;129.65;51.60;;;8.90;99.90;;;;;;5062792;28;20116;-72
2023/02/17 00:40:05;;;;;;;126.03;51.00;;;8.90;99.90;;;;;;5062912;28;20021;-73
2023/02/17 00:42:31;;;;;;;145.00;54.92;;;8.90;99.90;;;;;;5063496;28;20017;-73
2023/02/17 00:44:56;;;;;;;119.28;48.45;;;8.90;99.90;;;;;;5063102;28;21797;-73
2023/02/17 00:47:22;;;;;;;120.20;48.47;;;9.00;99.90;;;;;;5061664;28;20052;-73
2023/02/17 00:49:47;;;;;;;121.78;48.08;;;9.00;99.90;;;;;;5061874;28;20033;-71
2023/02/17 00:52:13;;;;;;;114.03;44.97;;;9.00;99.90;;;;;;5062164;28;20037;-73
2023/02/17 00:54:39;;;;;;;125.35;49.05;;;9.00;99.90;;;;;;5062264;28;20537;-71
2023/02/17 00:57:05;;;;;;;120.90;50.28;;;9.00;99.90;;;;;;5063187;28;20691;-71
2023/02/17 00:59:30;;;;;;;125.80;47.35;;;9.00;99.90;;;;;;5062635;28;20036;-73
2023/02/17 01:01:56;;;;;;;125.03;48.30;;;9.00;99.90;;;;;;5062514;28;20040;-73
2023/02/17 01:04:21;;;;;;;115.90;46.55;;;9.00;99.90;;;;;;5062601;28;20040;-73
2023/02/17 01:06:47;;;;;;;112.97;46.88;;;9.00;99.90;;;;;;5061477;28;20049;-73
2023/02/17 01:09:14;;;;;;;116.88;47.92;;;9.00;99.90;;;;;;5062219;28;20027;-73
2023/02/17 01:11:40;;;;;;;117.13;46.20;;;9.10;99.90;;;;;;5062177;28;20025;-72
2023/02/17 01:14:06;;;;;;;114.20;45.08;;;9.10;99.90;;;;;;5062770;28;20037;-72
2023/02/17 01:16:36;;;;;;;110.70;44.08;;;9.10;99.90;;;;;;5062016;28;20048;-73
2023/02/17 01:19:05;;;;;;;107.57;42.92;;;9.10;99.90;;;;;;5062378;28;20025;-72
2023/02/17 01:21:31;;;;;;;93.25;37.42;;;9.10;99.90;;;;;;5061015;28;20036;-72
2023/02/17 01:23:59;;;;;;;76.63;31.67;;;9.10;99.90;;;;;;5061952;28;20045;-72
2023/02/17 01:26:27;;;;;;;113.30;45.65;;;9.10;99.90;;;;;;5060797;28;20029;-73
2023/02/17 01:28:54;;;;;;;106.15;41.75;;;9.10;99.90;;;;;;5062073;28;20469;-73
2023/02/17 01:31:21;;;;;;;101.30;40.47;;;9.10;99.90;;;;;;5060995;28;20037;-73
2023/02/17 01:33:47;;;;;;;90.32;37.92;;;9.10;99.90;;;;;;5060052;28;20037;-73
2023/02/17 01:36:15;;;;;;;95.22;38.63;;;9.10;99.90;;;;;;5060916;28;20031;-72
2023/02/17 01:38:41;;;;;;;95.00;37.60;;;9.10;99.90;;;;;;5058641;28;20029;-74
2023/02/17 01:41:07;;;;;;;93.80;37.92;;;9.10;99.90;;;;;;5060555;28;20130;-71
2023/02/17 01:43:34;;;;;;;101.68;39.28;;;9.10;99.90;;;;;;5060416;28;20032;-72
2023/02/17 01:46:02;;;;;;;94.40;37.85;;;9.10;99.90;;;;;;5060926;28;20100;-70
2023/02/17 01:48:31;;;;;;;87.57;35.70;;;9.10;99.90;;;;;;5060114;28;20031;-73
2023/02/17 01:51:02;;;;;;;91.80;37.63;;;9.20;99.90;;;;;;5060585;28;20025;-72
2023/02/17 01:53:45;;;;;;;87.47;36.88;;;9.20;99.90;;;;;;5060287;28;20045;-72
2023/02/17 01:56:14;;;;;;;89.35;37.03;;;9.20;99.90;;;;;;5059127;28;20025;-72
2023/02/17 01:58:41;;;;;;;94.88;36.38;;;9.20;99.90;;;;;;5059252;28;20084;-71
2023/02/17 02:01:07;;;;;;;95.57;35.33;;;9.20;99.90;;;;;;5060588;28;20386;-72
2023/02/17 02:03:35;;;;;;;85.90;34.60;;;9.20;99.90;;;;;;5060900;28;20497;-72
2023/02/17 02:06:05;;;;;;;86.88;35.17;;;9.20;99.90;;;;;;5059961;28;20056;-72
2023/02/17 02:08:40;;;;;;;87.03;34.67;;;9.20;99.90;;;;;;5061000;28;20071;-70
2023/02/17 02:11:05;;;;;;;86.32;34.33;;;9.20;99.90;;;;;;5059328;28;20021;-72
2023/02/17 02:13:31;;;;;;;84.95;34.58;;;9.20;99.90;;;;;;5059447;28;20097;-72
2023/02/17 02:16:10;;;;;;;79.55;32.60;;;9.20;99.90;;;;;;5060738;28;20045;-73
2023/02/17 02:18:53;;;;;;;84.15;33.83;;;9.20;99.90;;;;;;5059654;28;20017;-72
2023/02/17 02:21:37;;;;;;;91.28;35.30;;;9.20;99.90;;;;;;5058770;28;20035;-72
2023/02/17 02:24:23;;;;;;;80.38;32.50;;;9.20;99.90;;;;;;5058324;28;20122;-73
2023/02/17 02:27:20;;;;;;;84.57;32.60;;;9.20;99.90;;;;;;5060617;28;20047;-73
2023/02/17 02:30:11;;;;;;;92.60;35.00;;;9.30;99.90;;;;;;5060587;28;20059;-71
2023/02/17 02:32:47;;;;;;;77.25;31.50;;;9.20;99.90;;;;;;5058993;28;20549;-71
2023/02/17 02:35:20;;;;;;;84.68;32.60;;;9.30;99.90;;;;;;5059012;28;20489;-70
2023/02/17 02:38:01;;;;;;;81.78;32.40;;;9.20;99.90;;;;;;5058851;28;20401;-72
2023/02/17 02:40:34;;;;;;;92.18;32.78;;;9.30;99.90;;;;;;5059956;28;20043;-71
2023/02/17 02:43:04;;;;;;;77.10;28.33;;;9.30;99.90;;;;;;5059707;28;20036;-72
2023/02/17 02:45:30;;;;;;;70.03;27.38;;;9.30;99.90;;;;;;5058643;28;20044;-72
2023/02/17 02:47:56;;;;;;;81.72;30.70;;;9.30;99.90;;;;;;5057998;28;20029;-72
2023/02/17 02:50:46;;;;;;;64.57;25.55;;;9.30;99.90;;;;;;5059330;28;20048;-74
2023/02/17 02:53:49;;;;;;;64.63;24.95;;;9.30;99.90;;;;;;5059854;28;20029;-75
2023/02/17 02:56:26;;;;;;;70.07;28.60;;;9.30;99.90;;;;;;5060116;28;20040;-72
2023/02/17 02:59:22;;;;;;;83.07;30.85;;;9.30;99.90;;;;;;5057648;28;20123;-74
2023/02/17 03:02:12;;;;;;;57.97;22.50;;;9.30;99.90;;;;;;5060443;28;20059;-71
2023/02/17 03:04:42;;;;;;;68.80;26.65;;;9.30;99.90;;;;;;5059532;28;20509;-76
2023/02/17 03:07:23;;;;;;;67.13;26.88;;;9.30;99.90;;;;;;5059889;28;20482;-72
2023/02/17 03:09:56;;;;;;;77.47;29.60;;;9.30;99.90;;;;;;5060034;28;20040;-75
2023/02/17 03:12:23;;;;;;;70.25;28.77;;;9.30;99.90;;;;;;5059031;28;20041;-74
2023/02/17 03:14:51;;;;;;;68.22;27.85;;;9.30;99.90;;;;;;5059617;28;20725;-72
2023/02/17 03:17:17;;;;;;;70.78;28.30;;;9.30;99.90;;;;;;5059492;28;20059;-74
2023/02/17 03:19:45;;;;;;;68.75;28.13;;;9.30;99.90;;;;;;5058770;28;20033;-72
2023/02/17 03:22:13;;;;;;;75.90;27.70;;;9.30;99.90;;;;;;5058721;28;20629;-73
2023/02/17 03:24:39;;;;;;;80.45;29.17;;;9.30;99.90;;;;;;5059240;28;20053;-73
2023/02/17 03:27:05;;;;;;;65.95;26.30;;;9.40;99.90;;;;;;5059859;28;20044;-73
2023/02/17 03:29:30;;;;;;;74.68;28.63;;;9.30;99.90;;;;;;5058534;28;20025;-72
2023/02/17 03:31:56;;;;;;;76.75;29.63;;;9.40;99.90;;;;;;5062280;28;20024;-74
2023/02/17 03:34:22;;;;;;;76.88;28.38;;;9.40;99.90;;;;;;5062544;28;20025;-72
2023/02/17 03:36:47;;;;;;;69.93;27.00;;;9.30;99.90;;;;;;5062449;28;20084;-72
2023/02/17 03:39:13;;;;;;;77.22;28.40;;;9.30;99.90;;;;;;5063009;28;20029;-71
2023/02/17 03:41:38;;;;;;;82.05;28.77;;;9.40;99.90;;;;;;5062254;28;20810;-73
2023/02/17 03:44:04;;;;;;;70.90;27.58;;;9.40;99.90;;;;;;5061687;28;20021;-72
2023/02/17 03:46:29;;;;;;;60.92;24.75;;;9.30;99.90;;;;;;5063356;28;20491;-72
2023/02/17 03:48:55;;;;;;;71.20;26.88;;;9.40;99.90;;;;;;5062492;28;20025;-73
2023/02/17 03:51:22;;;;;;;70.68;27.05;;;9.40;99.90;;;;;;5063281;28;20025;-76
2023/02/17 03:53:49;;;;;;;71.00;26.52;;;9.40;99.90;;;;;;5062344;28;20013;-73
2023/02/17 03:56:15;;;;;;;70.15;27.50;;;9.40;99.90;;;;;;5061853;28;20032;-78
2023/02/17 03:58:41;;;;;;;67.22;26.23;;;9.40;99.90;;;;;;5060778;28;20025;-75
2023/02/17 04:01:08;;;;;;;66.65;25.17;;;9.40;99.90;;;;;;5062581;28;20025;-77
2023/02/17 04:03:36;;;;;;;79.03;29.00;;;9.40;99.90;;;;;;5060656;28;20036;-74
2023/02/17 04:06:01;;;;;;;71.68;27.75;;;9.40;99.90;;;;;;5060909;28;20033;-72
2023/02/17 04:08:27;;;;;;;76.20;28.50;;;9.40;99.90;;;;;;5061885;28;20036;-75
2023/02/17 04:10:55;;;;;;;73.90;27.65;;;9.40;99.90;;;;;;5060884;28;20036;-75
2023/02/17 04:13:21;;;;;;;83.38;30.13;;;9.40;99.90;;;;;;5060883;28;20028;-77
2023/02/17 04:15:47;;;;;;;78.97;29.60;;;9.40;99.90;;;;;;5062247;28;20032;-75
2023/02/17 04:18:13;;;;;;;82.90;31.80;;;9.40;99.90;;;;;;5061133;28;20017;-76
2023/02/17 04:20:39;;;;;;;81.28;31.23;;;9.40;99.90;;;;;;5059535;28;20047;-74
2023/02/17 04:23:05;;;;;;;86.65;31.73;;;9.40;99.90;;;;;;5060549;28;20074;-76
2023/02/17 04:25:34;;;;;;;83.28;29.95;;;9.40;99.90;;;;;;5062107;28;20063;-74
2023/02/17 04:27:59;;;;;;;69.03;26.63;;;9.40;99.90;;;;;;5060333;28;20124;-72
2023/02/17 04:30:25;;;;;;;87.60;31.13;;;9.50;99.90;;;;;;5062386;28;20064;-77
2023/02/17 04:32:51;;;;;;;88.18;31.08;;;9.50;99.90;;;;;;5060910;28;20029;-74
2023/02/17 04:35:16;;;;;;;80.65;31.10;;;9.50;99.90;;;;;;5061853;28;20017;-75
2023/02/17 04:37:42;;;;;;;88.85;33.17;;;9.50;99.90;;;;;;5059861;28;20033;-75
2023/02/17 04:40:09;;;;;;;83.72;30.25;;;9.50;99.90;;;;;;5060390;28;20120;-74
2023/02/17 04:42:35;;;;;;;81.60;31.40;;;9.50;99.90;;;;;;5059174;28;20032;-75
2023/02/17 04:45:01;;;;;;;76.72;31.02;;;9.50;99.90;;;;;;5062109;28;20025;-76
2023/02/17 04:47:27;;;;;;;85.72;31.95;;;9.50;99.90;;;;;;5060203;28;20105;-75
2023/02/17 04:49:52;;;;;;;81.18;30.95;;;9.40;99.90;;;;;;5061978;28;20064;-75
2023/02/17 04:52:18;;;;;;;85.20;32.78;;;9.50;99.90;;;;;;5059609;28;20092;-76
2023/02/17 04:54:44;;;;;;;71.80;29.48;;;9.50;99.90;;;;;;5061884;28;20018;-73
2023/02/17 04:57:09;;;;;;;80.13;31.23;;;9.50;99.90;;;;;;5060678;28;20025;-75
2023/02/17 04:59:35;;;;;;;84.93;32.28;;;9.50;99.90;;;;;;5061850;28;20049;-77
2023/02/17 05:02:01;;;;;;;85.68;32.97;;;9.50;99.90;;;;;;5060300;28;20021;-76
2023/02/17 05:04:26;;;;;;;79.72;32.58;;;9.60;99.90;;;;;;5060309;28;20114;-79
2023/02/17 05:06:52;;;;;;;78.22;32.17;;;9.60;99.90;;;;;;5060187;28;20041;-74
2023/02/17 05:09:19;;;;;;;82.05;32.67;;;9.50;99.90;;;;;;5061729;28;20032;-77
2023/02/17 05:11:44;;;;;;;86.38;32.85;;;9.50;99.90;;;;;;5061344;28;20239;-76
2023/02/17 05:14:10;;;;;;;85.47;33.83;;;9.60;99.90;;;;;;5059015;28;20144;-75
2023/02/17 05:16:36;;;;;;;78.43;31.92;;;9.60;99.90;;;;;;5059626;28;20029;-75
2023/02/17 05:19:02;;;;;;;78.13;32.97;;;9.50;99.90;;;;;;5059880;28;20107;-76
2023/02/17 05:21:27;;;;;;;78.65;31.98;;;9.50;99.90;;;;;;5059651;28;20029;-74
2023/02/17 05:23:53;;;;;;;79.97;31.65;;;9.60;99.90;;;;;;5059745;28;20037;-79
2023/02/17 05:26:18;;;;;;;71.55;28.95;;;9.60;99.90;;;;;;5058743;28;20029;-74
2023/02/17 05:28:44;;;;;;;76.25;30.63;;;9.50;99.90;;;;;;5059531;28;20081;-76
2023/02/17 05:31:11;;;;;;;79.78;32.28;;;9.60;99.90;;;;;;5059839;28;20106;-78
2023/02/17 05:33:36;;;;;;;75.22;31.50;;;9.60;99.90;;;;;;5060741;28;20021;-74
2023/02/17 05:36:03;;;;;;;85.03;33.75;;;9.60;99.90;;;;;;5059717;28;20089;-78
2023/02/17 05:38:29;;;;;;;79.90;30.75;;;9.60;99.90;;;;;;5059392;28;20028;-77
2023/02/17 05:40:55;;;;;;;81.22;33.40;;;9.60;99.90;;;;;;5058952;28;20021;-73
2023/02/17 05:43:20;;;;;;;72.30;31.75;;;9.60;99.90;;;;;;5061178;28;20017;-75
2023/02/17 05:45:46;;;;;;;71.47;29.10;;;9.60;99.90;;;;;;5061266;28;20460;-76
2023/02/17 05:48:11;;;;;;;79.18;33.15;;;9.70;99.90;;;;;;5060938;28;20036;-75
2023/02/17 05:50:37;;;;;;;77.53;32.47;;;9.60;99.90;;;;;;5059436;28;20461;-74
2023/02/17 05:53:02;;;;;;;77.45;32.15;;;9.70;99.90;;;;;;5060512;28;20033;-73
2023/02/17 05:55:28;;;;;;;75.82;30.95;;;9.60;99.90;;;;;;5060435;28;20025;-73
2023/02/17 05:57:54;;;;;;;77.32;32.70;;;9.70;99.90;;;;;;5060381;28;20025;-73
2023/02/17 06:00:19;;;;;;;72.78;29.88;;;9.60;99.90;;;;;;5060337;28;20382;-74
2023/02/17 06:02:45;;;;;;;78.25;31.67;;;9.70;99.90;;;;;;5059688;28;20096;-73
2023/02/17 06:05:11;;;;;;;76.95;31.25;;;9.60;99.90;;;;;;5059354;28;20183;-75
2023/02/17 06:07:37;;;;;;;80.47;31.80;;;9.70;99.90;;;;;;5059234;28;20112;-77
2023/02/17 06:10:03;;;;;;;77.97;31.52;;;9.60;99.90;;;;;;5058580;28;20143;-76
2023/02/17 06:12:28;;;;;;;60.80;25.27;;;9.60;99.90;;;;;;5060626;28;20060;-76
2023/02/17 06:14:54;;;;;;;79.22;32.78;;;9.60;99.90;;;;;;5060695;28;20025;-76
2023/02/17 06:17:19;;;;;;;78.75;31.60;;;9.70;99.90;;;;;;5056918;28;20041;-74
2023/02/17 06:19:45;;;;;;;74.45;30.23;;;9.70;99.90;;;;;;5058903;28;20490;-79
2023/02/17 06:22:10;;;;;;;72.78;30.75;;;9.70;99.90;;;;;;5060780;28;20025;-73
2023/02/17 06:24:36;;;;;;;64.82;26.95;;;9.70;99.90;;;;;;5058101;28;20102;-71
2023/02/17 06:27:02;;;;;;;60.03;25.38;;;9.70;99.90;;;;;;5060749;28;20159;-73
2023/02/17 06:29:28;;;;;;;72.32;29.42;;;9.70;99.90;;;;;;5060650;28;20109;-73
2023/02/17 06:31:54;;;;;;;75.22;30.08;;;9.70;99.90;;;;;;5059042;28;20025;-72
2023/02/17 06:34:19;;;;;;;64.40;28.77;;;9.70;99.90;;;;;;5059644;28;20032;-73
2023/02/17 06:36:45;;;;;;;66.88;29.08;;;9.70;99.90;;;;;;5053325;28;20028;-74
2023/02/17 06:39:10;;;;;;;62.58;27.52;;;9.70;99.90;;;;;;5054336;28;20056;-75
2023/02/17 06:41:36;;;;;;;54.15;24.40;;;9.70;99.90;;;;;;5059200;28;20074;-71
2023/02/17 06:44:02;;;;;;;57.83;25.10;;;9.70;99.90;;;;;;5060248;28;20052;-72
2023/02/17 06:46:27;;;;;;;62.88;25.23;;;9.70;99.90;;;;;;5057858;28;20052;-76
2023/02/17 06:48:53;;;;;;;65.50;27.00;;;9.70;99.90;;;;;;5060326;28;20088;-75
2023/02/17 06:51:18;;;;;;;61.17;25.70;;;9.70;99.90;;;;;;5049976;28;20033;-76
2023/02/17 06:53:44;;;;;;;64.20;26.52;;;9.70;99.90;;;;;;5047848;28;20039;-73
2023/02/17 06:56:10;;;;;;;65.18;26.42;;;9.70;99.90;;;;;;5049641;28;20085;-71
2023/02/17 06:58:36;;;;;;;60.85;25.58;;;9.70;99.90;;;;;;5060322;28;20025;-74
2023/02/17 07:01:02;;;;;;;59.95;25.77;;;9.70;99.90;;;;;;5058121;28;20025;-74
2023/02/17 07:03:29;;;;;;;46.45;21.10;;;9.60;99.90;;;;;;5053840;28;20029;-74
2023/02/17 07:05:58;;;;;;;48.17;19.65;;;9.60;99.90;;;;;;5056846;28;20047;-77
2023/02/17 07:08:24;;;;;;;52.83;22.00;;;9.60;99.90;;;;;;5064815;28;20021;-72
2023/02/17 07:10:50;;;;;;;47.28;21.02;;;9.50;99.90;;;;;;5063958;28;20040;-73
2023/02/17 07:13:15;;;;;;;55.65;21.73;;;9.60;99.90;;;;;;5065119;28;20025;-73
2023/02/17 07:15:41;;;;;;;51.42;20.60;;;9.60;99.90;;;;;;5065211;28;20386;-72
2023/02/17 07:18:06;;;;;;;54.88;22.25;;;9.60;99.90;;;;;;5064898;28;20028;-73
2023/02/17 07:20:32;;;;;;;53.92;23.35;;;9.60;99.90;;;;;;5064884;28;20040;-73
2023/02/17 07:22:59;;;;;;;48.40;21.05;;;9.60;99.90;;;;;;5063653;28;20073;-76
2023/02/17 07:25:25;;;;;;;50.38;19.38;;;9.60;99.90;;;;;;5062301;28;20017;-73
2023/02/17 07:27:51;;;;;;;51.13;21.77;;;9.60;99.90;;;;;;5058788;28;20033;-73
2023/02/17 07:30:17;;;;;;;45.88;17.85;;;9.60;99.90;;;;;;5062403;28;20028;-78
2023/02/17 07:32:43;;;;;;;44.33;20.23;;;9.60;99.90;;;;;;5061484;28;20021;-75
2023/02/17 07:35:08;;;;;;;45.10;17.52;;;9.60;99.90;;;;;;5063226;28;20021;-75
2023/02/17 07:37:34;;;;;;;43.30;17.10;;;9.60;99.90;;;;;;5063680;28;20043;-74
2023/02/17 07:40:00;;;;;;;44.03;18.17;;;9.60;99.90;;;;;;5065373;28;20077;-75
2023/02/17 07:42:28;;;;;;;45.17;18.08;;;9.60;99.90;;;;;;5057598;28;20033;-75
2023/02/17 07:44:54;;;;;;;38.72;16.10;;;9.60;99.90;;;;;;5059862;28;20056;-75
2023/02/17 07:47:19;;;;;;;51.33;19.90;;;9.60;99.90;;;;;;5062078;28;20052;-71
2023/02/17 07:49:45;;;;;;;43.60;18.63;;;9.60;99.90;;;;;;5063506;28;20024;-71
2023/02/17 07:52:11;;;;;;;44.03;17.02;;;9.60;99.90;;;;;;5062553;28;20040;-73
2023/02/17 07:54:36;;;;;;;45.88;19.35;;;9.70;99.90;;;;;;5060521;28;20025;-71
2023/02/17 07:57:02;;;;;;;45.72;17.33;;;9.60;99.90;;;;;;5061241;28;20037;-72
2023/02/17 07:59:28;;;;;;;40.58;17.60;;;9.60;99.90;;;;;;5062874;28;20828;-72
2023/02/17 08:01:53;;;;;;;40.40;16.15;;;9.60;99.90;;;;;;5062977;28;20645;-76
2023/02/17 08:04:19;;;;;;;43.60;18.67;;;9.70;99.90;;;;;;5063029;28;20040;-73
2023/02/17 08:06:44;;;;;;;48.08;20.50;;;9.60;99.90;;;;;;5060709;28;20029;-71
2023/02/17 08:14:39;;;;;;;;;;;9.70;99.90;;;;;;5063099;28;20027;-73
2023/02/17 08:17:05;;;;;;;42.50;19.20;;;9.70;99.90;;;;;;5062519;28;19905;-71
2023/02/17 08:19:31;;;;;;;49.22;21.17;;;9.70;99.90;;;;;;5062788;28;20036;-72
2023/02/17 08:21:57;;;;;;;51.45;19.88;;;9.70;99.90;;;;;;5061648;28;20473;-71
2023/02/17 08:24:23;;;;;;;38.42;17.25;;;9.70;99.90;;;;;;5063963;28;20049;-75
2023/02/17 08:26:49;;;;;;;49.65;21.00;;;9.70;99.90;;;;;;5062634;28;20040;-74
2023/02/17 08:29:15;;;;;;;47.75;18.95;;;9.70;99.90;;;;;;5063574;28;20033;-72
2023/02/17 08:31:41;;;;;;;52.25;21.42;;;9.70;99.90;;;;;;5060386;28;20040;-74
2023/02/17 08:34:10;;;;;;;50.17;21.00;;;9.70;99.90;;;;;;5061004;28;20075;-70
2023/02/17 08:36:36;;;;;;;52.60;21.05;;;9.70;99.90;;;;;;5057408;28;20032;-73
2023/02/17 08:39:03;;;;;;;47.50;19.17;;;9.70;99.90;;;;;;5054316;28;20143;-69
2023/02/17 08:41:34;;;;;;;57.85;22.67;;;9.70;99.90;;;;;;5060441;28;20027;-71
2023/02/17 08:44:02;;;;;;;53.88;19.20;;;9.70;99.90;;;;;;5063324;28;20390;-70
2023/02/17 08:46:28;;;;;;;60.88;22.95;;;9.70;99.90;;;;;;5058397;28;20079;-69
2023/02/17 08:48:55;;;;;;;54.33;19.92;;;9.70;99.90;;;;;;5060568;28;20047;-70
2023/02/17 08:51:24;;;;;;;54.50;21.30;;;9.70;99.90;;;;;;5061807;28;20088;-71
2023/02/17 08:53:51;;;;;;;48.40;20.92;;;9.70;99.90;;;;;;5061952;28;20051;-69
2023/02/17 08:56:17;;;;;;;55.90;22.15;;;9.80;99.90;;;;;;5060837;28;20136;-72
2023/02/17 08:58:42;;;;;;;55.33;22.00;;;9.80;99.90;;;;;;5062811;28;20079;-72
2023/02/17 09:01:08;;;;;;;59.80;23.15;;;9.70;99.90;;;;;;5059913;28;20061;-71
2023/02/17 09:03:36;;;;;;;66.85;24.17;;;9.80;99.90;;;;;;5058036;28;20032;-71
2023/02/17 09:06:03;;;;;;;57.83;20.98;;;9.80;99.90;;;;;;5060910;28;20029;-73
2023/02/17 09:08:28;;;;;;;60.38;22.17;;;9.80;99.90;;;;;;5060023;28;20037;-75
2023/02/17 09:10:54;;;;;;;62.83;23.60;;;9.80;99.90;;;;;;5059995;28;20025;-73
2023/02/17 09:13:20;;;;;;;56.90;21.60;;;9.80;99.90;;;;;;5060707;28;20040;-75
2023/02/17 09:15:45;;;;;;;56.33;22.45;;;9.80;99.90;;;;;;5061620;28;20178;-75
2023/02/17 09:18:11;;;;;;;65.20;23.42;;;9.80;99.90;;;;;;5061459;28;20033;-73
2023/02/17 09:20:38;;;;;;;75.07;24.38;;;9.90;99.90;;;;;;5061284;28;20037;-69
2023/02/17 09:23:04;;;;;;;70.68;24.58;;;9.90;99.90;;;;;;5061478;28;20041;-73
2023/02/17 09:25:30;;;;;;;47.60;18.05;;;9.90;99.90;;;;;;5059818;28;20048;-74
2023/02/17 09:27:56;;;;;;;69.63;25.13;;;9.90;99.90;;;;;;5060989;28;20474;-70
2023/02/17 09:30:21;;;;;;;62.20;21.88;;;9.90;99.90;;;;;;5058937;28;20052;-71
2023/02/17 09:32:47;;;;;;;61.97;23.65;;;9.90;99.90;;;;;;5059700;28;20028;-72
2023/02/17 09:35:14;;;;;;;65.65;23.75;;;10.00;99.90;;;;;;5060484;28;20025;-69
2023/02/17 09:37:40;;;;;;;68.60;26.33;;;10.00;99.90;;;;;;5062185;28;20166;-70
2023/02/17 09:40:08;;;;;;;65.78;25.33;;;10.00;99.90;;;;;;5061328;28;20013;-70
2023/02/17 09:42:39;;;;;;;67.43;26.30;;;10.10;99.90;;;;;;5060720;28;20506;-69
2023/02/17 09:45:10;;;;;;;59.15;24.20;;;10.10;99.90;;;;;;5061299;28;20087;-71
2023/02/17 09:48:00;;;;;;;67.15;25.95;;;10.10;99.90;;;;;;5062116;28;20067;-71
2023/02/17 09:50:46;;;;;;;62.08;25.38;;;10.10;99.90;;;;;;5061489;28;20097;-72
2023/02/17 09:53:12;;;;;;;57.00;20.88;;;10.20;99.90;;;;;;5061608;28;20056;-71
2023/02/17 09:55:43;;;;;;;57.17;24.00;;;10.20;99.90;;;;;;5061429;28;20170;-71
2023/02/17 09:58:16;;;;;;;56.17;23.17;;;10.20;99.90;;;;;;5059301;28;20055;-71
2023/02/17 10:00:49;;;;;;;61.45;22.95;;;10.20;99.90;;;;;;5058419;28;20029;-71
2023/02/17 10:03:21;;;;;;;61.50;24.33;;;10.30;99.90;;;;;;5050148;28;20056;-71
2023/02/17 10:06:09;;;;;;;63.30;24.33;;;10.30;99.90;;;;;;5048989;28;20037;-74
2023/02/17 10:08:41;;;;;;;57.33;25.55;;;10.30;99.90;;;;;;5059360;28;20036;-72
2023/02/17 10:11:52;;;;;;;58.25;23.17;;;10.40;99.90;;;;;;5056383;28;20025;-72
2023/02/17 10:14:42;;;;;;;54.75;22.08;;;10.40;99.90;;;;;;5057986;28;20029;-73
2023/02/17 10:17:22;;;;;;;54.85;21.52;;;10.50;99.90;;;;;;5059015;28;20047;-75
2023/02/17 10:20:02;;;;;;;54.85;23.35;;;10.50;99.90;;;;;;5059064;28;20036;-71
2023/02/17 10:22:30;;;;;;;48.58;19.98;;;10.60;99.90;;;;;;5058115;28;20052;-72
2023/02/17 10:24:56;;;;;;;53.70;22.23;;;10.60;99.90;;;;;;5059522;28;20076;-71
2023/02/17 10:27:41;;;;;;;49.63;19.25;;;10.60;99.90;;;;;;5058069;28;20513;-72
2023/02/17 10:30:32;;;;;;;54.78;23.67;;;10.70;99.90;;;;;;5057885;28;20698;-71
2023/02/17 10:33:15;;;;;;;56.33;21.98;;;10.70;99.90;;;;;;5056260;28;20351;-79
2023/02/17 10:35:54;;;;;;;49.10;20.70;;;10.70;99.90;;;;;;5057933;28;20496;-76
2023/02/17 10:38:32;;;;;;;50.72;21.23;;;10.70;99.90;;;;;;5057489;28;20025;-69
2023/02/17 10:41:00;;;;;;;56.00;21.33;;;10.80;99.90;;;;;;5055860;28;20036;-70
2023/02/17 10:43:30;;;;;;;47.13;21.67;;;10.80;99.90;;;;;;5059628;28;20366;-72
2023/02/17 10:45:58;;;;;;;54.83;21.45;;;10.80;99.90;;;;;;5058032;28;20033;-71
2023/02/17 10:48:41;;;;;;;42.50;20.35;;;10.80;99.90;;;;;;5055910;28;20508;-69
2023/02/17 10:51:14;;;;;;;51.67;19.85;;;10.80;99.90;;;;;;5060875;28;20029;-73
2023/02/17 10:53:40;;;;;;;52.53;21.33;;;10.80;99.90;;;;;;5061054;28;20027;-71
2023/02/17 10:56:13;;;;;;;52.22;21.48;;;10.80;99.90;;;;;;5059088;28;20029;-71
2023/02/17 10:58:45;;;;;;;42.42;19.52;;;10.80;99.90;;;;;;5058846;28;20037;-71
2023/02/17 11:01:11;;;;;;;48.22;20.17;;;10.80;99.90;;;;;;5053978;28;20024;-72
2023/02/17 11:03:39;;;;;;;47.80;19.15;;;10.90;99.90;;;;;;5058190;28;20037;-71
2023/02/17 11:06:13;;;;;;;44.92;20.75;;;10.90;99.90;;;;;;5057808;28;20033;-71
2023/02/17 11:09:04;;;;;;;46.70;21.23;;;10.90;99.90;;;;;;5059334;28;20033;-71
2023/02/17 11:11:33;;;;;;;44.80;20.33;;;10.90;99.90;;;;;;5056982;28;20041;-72
2023/02/17 11:14:04;;;;;;;42.53;17.25;;;10.90;99.90;;;;;;5056947;28;20123;-71
2023/02/17 11:16:38;;;;;;;42.92;18.98;;;10.90;99.90;;;;;;5057248;28;20032;-72
2023/02/17 11:19:05;;;;;;;33.50;14.07;;;10.90;99.90;;;;;;5059644;28;20025;-72
2023/02/17 11:21:32;;;;;;;52.42;19.55;;;10.90;99.90;;;;;;5059446;28;20021;-73
2023/02/17 11:23:59;;;;;;;40.70;17.75;;;11.00;99.90;;;;;;5059370;28;20095;-72
2023/02/17 11:26:28;;;;;;;41.75;18.83;;;11.00;99.90;;;;;;5060716;28;20037;-73
2023/02/17 11:28:54;;;;;;;44.58;19.30;;;11.00;99.90;;;;;;5060633;28;20104;-72
2023/02/17 11:31:24;;;;;;;44.30;18.58;;;11.00;99.90;;;;;;5059438;28;20574;-72
2023/02/17 11:33:50;;;;;;;41.53;18.60;;;11.00;99.90;;;;;;5060556;28;20032;-71
2023/02/17 11:36:27;;;;;;;44.95;20.15;;;11.10;99.90;;;;;;5060753;28;20029;-70
2023/02/17 11:38:53;;;;;;;42.42;17.65;;;11.10;99.90;;;;;;5060330;28;20096;-74
2023/02/17 11:41:19;;;;;;;36.10;14.85;;;11.00;99.90;;;;;;5060664;28;20044;-69
2023/02/17 11:43:59;;;;;;;37.33;15.85;;;11.00;99.90;;;;;;5060241;28;20036;-72
2023/02/17 11:46:27;;;;;;;41.20;17.63;;;11.00;99.90;;;;;;5058571;28;20044;-71
2023/02/17 11:49:08;;;;;;;41.90;19.08;;;11.10;99.90;;;;;;5060550;28;20044;-71
2023/02/17 11:51:49;;;;;;;34.65;14.68;;;11.00;99.90;;;;;;5061175;28;20029;-71
2023/02/17 11:54:59;;;;;;;43.15;18.17;;;11.00;99.90;;;;;;5063620;28;20024;-71
2023/02/17 11:57:36;;;;;;;40.90;17.33;;;10.90;99.90;;;;;;5023979;28;20468;-72
2023/02/17 12:00:21;;;;;;;37.00;17.20;;;10.90;99.90;;;;;;5052928;28;20052;-71
2023/02/17 12:03:11;;;;;;;44.38;17.95;;;10.80;99.90;;;;;;5059367;28;20083;-71
2023/02/17 12:05:53;;;;;;;41.65;18.13;;;10.80;99.90;;;;;;5062745;28;20112;-70
2023/02/17 12:09:16;;;;;;;37.47;15.75;;;10.80;99.90;;;;;;5064405;28;20115;-72
2023/02/17 12:11:51;;;;;;;38.45;15.98;;;10.70;99.90;;;;;;5021411;28;20057;-71
2023/02/17 12:14:38;;;;;;;37.92;14.07;;;10.70;99.90;;;;;;5021351;28;20096;-73
2023/02/17 12:17:03;;;;;;;42.80;16.33;;;10.70;99.90;;;;;;5049925;28;20037;-71
2023/02/17 12:19:55;;;;;;;33.88;14.43;;;10.70;99.90;;;;;;5063879;28;20032;-72
2023/02/17 12:22:45;;;;;;;39.78;14.52;;;10.60;99.90;;;;;;5064000;28;20482;-73
2023/02/17 12:25:21;;;;;;;36.28;14.63;;;10.60;99.90;;;;;;5062387;28;20568;-71
2023/02/17 12:27:55;;;;;;;39.83;14.70;;;10.60;99.90;;;;;;5062528;28;20029;-72
2023/02/17 12:30:52;;;;;;;32.08;13.48;;;10.60;99.90;;;;;;5063858;28;20040;-72
2023/02/17 12:33:42;;;;;;;33.35;13.90;;;10.60;99.90;;;;;;5063102;28;20029;-71
2023/02/17 12:36:13;;;;;;;35.03;13.55;;;10.50;99.90;;;;;;5061051;28;20025;-71
2023/02/17 12:38:46;;;;;;;32.05;12.32;;;10.60;99.90;;;;;;5060861;28;20091;-71
2023/02/17 12:41:37;;;;;;;33.05;13.52;;;10.60;99.90;;;;;;5061488;28;20068;-72
2023/02/17 12:44:11;;;;;;;33.83;14.40;;;10.60;99.90;;;;;;5063634;28;20053;-73
2023/02/17 12:46:43;;;;;;;34.72;13.48;;;10.50;99.90;;;;;;5062995;28;20056;-71
2023/02/17 12:49:28;;;;;;;38.42;12.15;;;10.50;99.90;;;;;;5063309;28;20473;-73
2023/02/17 12:52:07;;;;;;;37.70;14.13;;;10.50;99.90;;;;;;5063111;28;20036;-72